Time;durP1;ratioP1;P1;durP2;ratioP2;P2;SDS_P1;SDS_P2;PMS_P1;PMS_P2;Temp;Humidity;BMP_temperature;BMP_pressure;BME280_temperature;BME280_humidity;BME280_pressure;Samples;Min_cycle;Max_cycle;Signal;HPM_P1;HPM_P2
2021/12/29 00:00:13;;;;;;;5.13;1.53;;;11.30;99.90;;;;;;5087276;28;20169;-76
2021/12/29 00:02:40;;;;;;;5.30;1.60;;;11.30;99.90;;;;;;5090979;28;20753;-77
2021/12/29 00:05:07;;;;;;;4.40;1.40;;;11.30;99.90;;;;;;5092357;28;20652;-78
2021/12/29 00:07:32;;;;;;;4.83;1.50;;;11.30;99.90;;;;;;5076465;28;20232;-77
2021/12/29 00:10:02;;;;;;;2.53;1.47;;;11.30;99.90;;;;;;5092196;28;20173;-76
2021/12/29 00:12:28;;;;;;;4.53;1.40;;;11.30;99.90;;;;;;5087328;28;20184;-77
2021/12/29 00:14:55;;;;;;;3.90;2.00;;;11.30;99.90;;;;;;5077968;28;20170;-77
2021/12/29 00:17:22;;;;;;;4.47;1.33;;;11.30;99.90;;;;;;5088130;28;20193;-77
2021/12/29 00:19:48;;;;;;;2.77;1.43;;;11.30;99.90;;;;;;5095561;28;20454;-76
2021/12/29 00:22:14;;;;;;;3.30;1.40;;;11.30;99.90;;;;;;5091608;28;20267;-77
2021/12/29 00:24:40;;;;;;;5.03;1.67;;;11.30;99.90;;;;;;5092504;28;20195;-79
2021/12/29 00:27:07;;;;;;;4.47;1.70;;;11.30;99.90;;;;;;5087371;28;20714;-77
2021/12/29 00:29:33;;;;;;;3.93;1.53;;;11.20;99.90;;;;;;5075186;28;20200;-77
2021/12/29 00:32:28;;;;;;;4.77;1.40;;;11.20;99.90;;;;;;5048396;28;20191;-77
2021/12/29 00:35:14;;;;;;;3.33;1.37;;;11.20;99.90;;;;;;5092614;28;20180;-78
2021/12/29 00:38:18;;;;;;;3.97;1.37;;;11.20;99.90;;;;;;5031613;28;20188;-79
2021/12/29 00:41:03;;;;;;;3.17;1.60;;;11.20;99.90;;;;;;5017550;28;20793;-77
2021/12/29 00:43:48;;;;;;;3.77;1.53;;;11.20;99.90;;;;;;5076062;28;20245;-77
2021/12/29 00:46:19;;;;;;;4.40;1.77;;;11.10;99.90;;;;;;5095599;28;20219;-77
2021/12/29 00:48:47;;;;;;;3.50;1.30;;;11.20;99.90;;;;;;5098870;28;20180;-77
2021/12/29 00:51:13;;;;;;;3.57;1.50;;;11.10;99.90;;;;;;5099495;28;20180;-77
2021/12/29 00:53:40;;;;;;;3.03;1.47;;;11.20;99.90;;;;;;5078062;28;20672;-77
2021/12/29 00:56:06;;;;;;;4.20;1.30;;;11.10;99.90;;;;;;5082498;28;20210;-77
2021/12/29 00:58:32;;;;;;;3.10;1.57;;;11.10;99.90;;;;;;5098227;28;20526;-77
2021/12/29 01:00:59;;;;;;;5.77;1.50;;;11.20;99.90;;;;;;5098483;28;20216;-76
2021/12/29 01:03:26;;;;;;;3.90;1.50;;;11.20;99.90;;;;;;5099873;28;20210;-77
2021/12/29 01:05:53;;;;;;;3.97;1.33;;;11.20;99.90;;;;;;5097692;28;20200;-77
2021/12/29 01:08:20;;;;;;;3.17;1.40;;;11.20;99.90;;;;;;5098727;28;20183;-77
2021/12/29 01:10:47;;;;;;;3.43;1.37;;;11.30;99.90;;;;;;5097243;28;20201;-77
2021/12/29 01:13:18;;;;;;;5.33;1.57;;;11.30;99.90;;;;;;5099520;28;20450;-77
2021/12/29 01:16:36;;;;;;;3.60;1.43;;;11.20;99.90;;;;;;5079618;28;20204;-77
2021/12/29 01:18:37;;;;;;;4.27;1.60;;;11.30;99.90;;;;;;5089739;28;20203;-77
2021/12/29 01:21:04;;;;;;;5.57;1.77;;;11.20;99.90;;;;;;5096952;28;20195;-77
2021/12/29 01:23:30;;;;;;;4.67;1.57;;;11.20;99.90;;;;;;5083028;28;20698;-77
2021/12/29 01:25:56;;;;;;;4.63;1.50;;;11.30;99.90;;;;;;5090571;28;20242;-77
2021/12/29 01:28:21;;;;;;;5.67;1.60;;;11.30;99.90;;;;;;5094421;28;20524;-77
2021/12/29 01:30:47;;;;;;;3.20;1.40;;;11.30;99.90;;;;;;5076607;28;20182;-77
2021/12/29 01:33:13;;;;;;;4.33;1.70;;;11.10;99.90;;;;;;5077479;28;20189;-77
2021/12/29 01:35:40;;;;;;;3.30;1.40;;;11.20;99.90;;;;;;5094907;28;20192;-77
2021/12/29 01:38:07;;;;;;;3.87;1.50;;;11.10;99.90;;;;;;5096913;28;20172;-77
2021/12/29 01:40:35;;;;;;;4.13;1.33;;;11.10;99.90;;;;;;5098004;28;20737;-78
2021/12/29 01:43:04;;;;;;;3.67;1.70;;;11.00;99.90;;;;;;5098051;28;20214;-77
2021/12/29 01:45:30;;;;;;;2.20;1.37;;;11.00;99.90;;;;;;5096339;28;20376;-77
2021/12/29 01:47:56;;;;;;;2.57;1.10;;;11.00;99.90;;;;;;5096761;28;20172;-77
2021/12/29 01:50:22;;;;;;;5.90;1.50;;;11.00;99.90;;;;;;5097440;28;20184;-77
2021/12/29 01:52:55;;;;;;;2.03;1.43;;;11.00;99.90;;;;;;5097450;28;20233;-76
2021/12/29 01:55:25;;;;;;;4.07;1.37;;;11.00;99.90;;;;;;5097409;28;20187;-77
2021/12/29 01:57:52;;;;;;;2.80;1.30;;;11.00;99.90;;;;;;5094462;28;20206;-79
2021/12/29 02:00:21;;;;;;;3.40;1.50;;;11.00;99.90;;;;;;5087940;28;20257;-77
2021/12/29 02:02:46;;;;;;;3.53;1.33;;;11.00;99.90;;;;;;5077166;28;20181;-76
2021/12/29 02:05:12;;;;;;;2.50;1.20;;;11.00;99.90;;;;;;5088336;28;20181;-76
2021/12/29 02:07:39;;;;;;;3.50;1.27;;;11.00;99.90;;;;;;5078414;28;20211;-77
2021/12/29 02:10:07;;;;;;;3.23;1.50;;;11.00;99.90;;;;;;5075159;28;20578;-77
2021/12/29 02:12:34;;;;;;;2.67;1.40;;;10.90;99.90;;;;;;5092878;28;20252;-77
2021/12/29 02:15:00;;;;;;;3.83;1.33;;;10.90;99.90;;;;;;5094031;28;20202;-79
2021/12/29 02:17:25;;;;;;;3.00;1.30;;;10.90;99.90;;;;;;5078932;28;20200;-77
2021/12/29 02:19:52;;;;;;;2.90;1.30;;;10.90;99.90;;;;;;5078590;28;20186;-77
2021/12/29 02:27:52;;;;;;;3.00;1.40;;;10.90;99.90;;;;;;5095027;28;20237;-77
2021/12/29 02:30:21;;;;;;;2.57;1.30;;;10.90;99.90;;;;;;5095949;28;20184;-80
2021/12/29 02:32:49;;;;;;;2.67;1.23;;;10.90;99.90;;;;;;5112087;28;20184;-76
2021/12/29 02:35:16;;;;;;;3.00;1.40;;;10.80;99.90;;;;;;5096295;28;20197;-78
2021/12/29 02:37:43;;;;;;;5.07;1.87;;;10.80;99.90;;;;;;5076354;28;20246;-76
2021/12/29 02:40:10;;;;;;;2.40;1.30;;;10.80;99.90;;;;;;5087584;28;20174;-79
2021/12/29 02:42:41;;;;;;;3.40;1.50;;;10.80;99.90;;;;;;5058179;28;20311;-77
2021/12/29 02:45:11;;;;;;;2.20;1.10;;;10.70;99.90;;;;;;5073143;28;20592;-77
2021/12/29 02:47:36;;;;;;;2.03;1.17;;;10.80;99.90;;;;;;5072889;28;20911;-76
2021/12/29 02:50:03;;;;;;;2.80;1.43;;;10.80;99.90;;;;;;5087432;28;20181;-79
2021/12/29 02:52:29;;;;;;;2.80;1.20;;;10.80;99.90;;;;;;5082516;28;20168;-77
2021/12/29 02:54:55;;;;;;;1.67;1.20;;;10.80;99.90;;;;;;5094451;28;20644;-79
2021/12/29 02:57:21;;;;;;;2.00;1.20;;;10.80;99.90;;;;;;5092676;28;20201;-77
2021/12/29 02:59:46;;;;;;;3.50;1.60;;;10.80;99.90;;;;;;5084388;28;20202;-77
2021/12/29 03:02:12;;;;;;;3.07;1.20;;;10.80;99.90;;;;;;5095097;28;20176;-78
2021/12/29 03:04:38;;;;;;;3.50;1.70;;;10.80;99.90;;;;;;5094253;28;20180;-77
2021/12/29 03:07:04;;;;;;;3.83;1.60;;;10.80;99.90;;;;;;5083086;28;20591;-77
2021/12/29 03:09:30;;;;;;;6.70;2.90;;;10.80;99.90;;;;;;5094263;28;20169;-77
2021/12/29 03:11:56;;;;;;;2.83;1.60;;;10.80;99.90;;;;;;5073798;28;20189;-76
2021/12/29 03:14:25;;;;;;;2.53;1.40;;;10.80;99.90;;;;;;5074688;28;20264;-77
2021/12/29 03:16:51;;;;;;;3.73;1.60;;;10.80;99.90;;;;;;5076245;28;20204;-76
2021/12/29 03:19:17;;;;;;;2.17;1.20;;;10.80;99.90;;;;;;5086610;28;20754;-77
2021/12/29 03:21:44;;;;;;;1.80;1.00;;;10.80;99.90;;;;;;5073336;28;20185;-77
2021/12/29 03:24:12;;;;;;;2.23;1.20;;;10.80;99.90;;;;;;5092909;28;20180;-76
2021/12/29 03:26:38;;;;;;;2.67;1.10;;;10.80;99.90;;;;;;5092454;28;20296;-78
2021/12/29 03:29:05;;;;;;;2.17;1.10;;;10.80;99.90;;;;;;5072633;28;20214;-80
2021/12/29 03:31:33;;;;;;;1.93;1.00;;;10.80;99.90;;;;;;5060715;28;20180;-76
2021/12/29 03:33:59;;;;;;;4.40;1.23;;;10.80;99.90;;;;;;5092417;28;20234;-76
2021/12/29 03:36:28;;;;;;;1.50;1.10;;;10.80;99.90;;;;;;5093648;28;20223;-75
2021/12/29 03:38:54;;;;;;;1.70;1.10;;;10.80;99.90;;;;;;5091028;28;20184;-75
2021/12/29 03:41:20;;;;;;;2.53;1.33;;;10.80;99.90;;;;;;5093693;28;20229;-76
2021/12/29 03:43:46;;;;;;;2.70;1.43;;;10.80;99.90;;;;;;5074484;28;20184;-75
2021/12/29 03:46:14;;;;;;;2.13;1.23;;;10.80;99.90;;;;;;5092499;28;20204;-75
2021/12/29 03:48:43;;;;;;;3.03;1.60;;;10.80;99.90;;;;;;5093571;28;20671;-76
2021/12/29 03:51:08;;;;;;;2.47;1.20;;;10.80;99.90;;;;;;5094056;28;20169;-77
2021/12/29 03:53:35;;;;;;;3.73;1.40;;;10.80;99.90;;;;;;5092959;28;20183;-75
2021/12/29 03:56:02;;;;;;;3.67;1.47;;;10.80;99.90;;;;;;5074601;28;20250;-76
2021/12/29 03:58:29;;;;;;;4.33;1.40;;;10.80;99.90;;;;;;5085399;28;20222;-76
2021/12/29 04:00:59;;;;;;;2.73;1.47;;;10.80;99.90;;;;;;5075785;28;20243;-78
2021/12/29 04:03:26;;;;;;;7.10;1.40;;;10.80;99.90;;;;;;5092717;28;20192;-77
2021/12/29 04:05:51;;;;;;;3.20;1.40;;;10.80;99.90;;;;;;5091501;28;20232;-78
2021/12/29 04:08:17;;;;;;;5.77;1.57;;;10.80;99.90;;;;;;5092247;28;20683;-78
2021/12/29 04:10:43;;;;;;;3.90;1.27;;;10.80;99.90;;;;;;5094659;28;20177;-75
2021/12/29 04:13:09;;;;;;;3.63;1.43;;;10.80;99.90;;;;;;5094017;28;20572;-75
2021/12/29 04:15:36;;;;;;;3.90;1.40;;;10.70;99.90;;;;;;5093166;28;20184;-75
2021/12/29 04:18:04;;;;;;;3.13;1.20;;;10.80;99.90;;;;;;5093600;28;20195;-75
2021/12/29 04:23:19;;;;;;;3.20;1.30;;;10.80;99.90;;;;;;5093807;28;20180;-75
2021/12/29 04:25:49;;;;;;;3.47;1.33;;;10.80;99.90;;;;;;5093379;28;20261;-76
2021/12/29 04:28:20;;;;;;;3.00;1.40;;;10.70;99.90;;;;;;5092890;28;20176;-75
2021/12/29 04:30:47;;;;;;;3.87;1.73;;;10.70;99.90;;;;;;5094616;28;20188;-75
2021/12/29 04:33:14;;;;;;;3.37;2.10;;;10.60;99.90;;;;;;5093651;28;20187;-75
2021/12/29 04:35:40;;;;;;;2.80;1.77;;;10.60;99.90;;;;;;5076403;28;20203;-76
2021/12/29 04:38:07;;;;;;;3.23;1.53;;;10.60;99.90;;;;;;5081360;28;20295;-75
2021/12/29 04:40:33;;;;;;;3.43;1.70;;;10.60;99.90;;;;;;5109179;28;20200;-77
2021/12/29 04:42:59;;;;;;;4.53;1.70;;;10.60;99.90;;;;;;5093055;28;20185;-76
2021/12/29 04:45:25;;;;;;;3.23;1.40;;;10.50;99.90;;;;;;5092204;28;20298;-75
2021/12/29 04:47:51;;;;;;;2.87;1.50;;;10.50;99.90;;;;;;5093190;28;20543;-78
2021/12/29 04:50:28;;;;;;;2.60;1.30;;;10.50;99.90;;;;;;5092874;28;20249;-77
2021/12/29 04:52:57;;;;;;;3.73;1.40;;;10.60;99.90;;;;;;5092308;28;20235;-75
2021/12/29 04:55:24;;;;;;;3.63;1.40;;;10.50;99.90;;;;;;5092519;28;20255;-75
2021/12/29 04:57:50;;;;;;;2.63;1.33;;;10.50;99.90;;;;;;5093246;28;20242;-75
2021/12/29 05:00:18;;;;;;;4.87;2.57;;;10.50;99.90;;;;;;5091864;28;20176;-75
2021/12/29 05:02:44;;;;;;;3.63;1.60;;;10.50;99.90;;;;;;5080858;28;20169;-75
2021/12/29 05:05:23;;;;;;;3.87;1.77;;;10.50;99.90;;;;;;5090506;28;20252;-76
2021/12/29 05:10:35;;;;;;;4.03;2.00;;;10.50;99.90;;;;;;5091166;28;20160;-78
2021/12/29 05:13:01;;;;;;;3.90;2.63;;;10.50;99.90;;;;;;5058110;28;20229;-75
2021/12/29 05:15:27;;;;;;;3.60;2.17;;;10.50;99.90;;;;;;5091104;28;20517;-75
2021/12/29 05:17:53;;;;;;;3.10;1.67;;;10.50;99.90;;;;;;5074669;28;20184;-75
2021/12/29 05:20:18;;;;;;;1.80;1.20;;;10.50;99.90;;;;;;5091994;28;20199;-75
2021/12/29 05:22:44;;;;;;;1.57;1.20;;;10.50;99.90;;;;;;5091580;28;20239;-76
2021/12/29 05:25:10;;;;;;;3.27;1.20;;;10.50;99.90;;;;;;5067330;28;20188;-76
2021/12/29 05:27:36;;;;;;;2.57;1.20;;;10.50;99.90;;;;;;5089514;28;20279;-75
2021/12/29 05:30:04;;;;;;;2.67;1.50;;;10.50;99.90;;;;;;5091754;28;20273;-76
2021/12/29 05:32:30;;;;;;;3.03;1.40;;;10.50;99.90;;;;;;5098931;28;20172;-76
2021/12/29 05:34:57;;;;;;;3.63;1.50;;;10.50;99.90;;;;;;5101618;28;20196;-75
2021/12/29 05:37:23;;;;;;;6.40;3.00;;;10.50;99.90;;;;;;5102392;28;20211;-78
2021/12/29 05:39:49;;;;;;;2.43;1.90;;;10.40;99.90;;;;;;5101729;28;20180;-76
2021/12/29 05:42:15;;;;;;;3.17;1.27;;;10.40;99.90;;;;;;5100707;28;20263;-76
2021/12/29 05:44:41;;;;;;;2.67;1.47;;;10.40;99.90;;;;;;5100950;28;20207;-78
2021/12/29 05:47:06;;;;;;;1.70;1.10;;;10.40;99.90;;;;;;5100557;28;20271;-76
2021/12/29 05:49:33;;;;;;;2.87;1.20;;;10.40;99.90;;;;;;5083485;28;20183;-75
2021/12/29 05:51:59;;;;;;;4.47;1.60;;;10.30;99.90;;;;;;5098717;28;20172;-77
2021/12/29 05:54:24;;;;;;;5.93;2.20;;;10.30;99.90;;;;;;5099226;28;20179;-77
2021/12/29 05:56:50;;;;;;;4.57;2.30;;;10.20;99.90;;;;;;5098966;28;20205;-75
2021/12/29 05:59:16;;;;;;;4.47;1.90;;;10.20;99.90;;;;;;5098169;28;20247;-75
2021/12/29 06:01:44;;;;;;;3.60;1.57;;;10.20;99.90;;;;;;5097693;28;20238;-76
2021/12/29 06:04:10;;;;;;;2.47;1.67;;;10.20;99.90;;;;;;5074407;28;20189;-76
2021/12/29 06:06:36;;;;;;;4.37;2.63;;;10.10;99.90;;;;;;5087750;28;20212;-77
2021/12/29 06:09:02;;;;;;;4.80;2.40;;;10.10;99.90;;;;;;5097657;28;20176;-78
2021/12/29 06:11:28;;;;;;;4.80;2.70;;;10.10;99.90;;;;;;5099832;28;20177;-76
2021/12/29 06:13:54;;;;;;;3.33;1.97;;;10.10;99.90;;;;;;5095435;28;20180;-79
2021/12/29 06:16:19;;;;;;;4.87;2.50;;;10.10;99.90;;;;;;5065085;28;20201;-75
2021/12/29 06:18:45;;;;;;;6.83;3.10;;;10.10;99.90;;;;;;5096922;28;20451;-75
2021/12/29 06:21:16;;;;;;;7.13;2.90;;;10.10;99.90;;;;;;5078625;28;20188;-75
2021/12/29 06:23:46;;;;;;;3.97;2.37;;;10.10;99.90;;;;;;5099101;28;20193;-78
2021/12/29 06:26:13;;;;;;;3.97;2.23;;;10.10;99.90;;;;;;5097211;28;20200;-75
2021/12/29 06:28:39;;;;;;;5.07;2.43;;;10.10;99.90;;;;;;5097896;28;20179;-76
2021/12/29 06:31:05;;;;;;;3.80;2.17;;;10.10;99.90;;;;;;5097573;28;20164;-76
2021/12/29 06:33:31;;;;;;;6.17;3.00;;;10.10;99.90;;;;;;5092663;28;20675;-77
2021/12/29 06:35:56;;;;;;;4.47;2.47;;;10.10;99.90;;;;;;5083598;28;20222;-76
2021/12/29 06:38:22;;;;;;;4.07;2.27;;;10.10;99.90;;;;;;5093356;28;20625;-76
2021/12/29 06:40:48;;;;;;;6.20;1.90;;;10.10;99.90;;;;;;5087753;28;20196;-75
2021/12/29 06:43:15;;;;;;;3.80;2.43;;;10.20;99.90;;;;;;5076947;28;20206;-75
2021/12/29 06:45:41;;;;;;;5.17;2.20;;;10.10;99.90;;;;;;5094604;28;20708;-75
2021/12/29 06:48:06;;;;;;;5.07;2.47;;;10.20;99.90;;;;;;5096200;28;20168;-76
2021/12/29 06:50:33;;;;;;;7.37;4.93;;;10.20;99.90;;;;;;5096622;28;20173;-75
2021/12/29 06:52:59;;;;;;;6.97;3.27;;;10.20;99.90;;;;;;5096866;28;20168;-75
2021/12/29 06:55:25;;;;;;;4.37;2.50;;;10.20;99.90;;;;;;5095995;28;20179;-74
2021/12/29 06:57:51;;;;;;;6.60;2.83;;;10.20;99.90;;;;;;5095480;28;20192;-75
2021/12/29 07:00:19;;;;;;;4.93;2.50;;;10.20;99.90;;;;;;5093902;28;20173;-77
2021/12/29 07:02:45;;;;;;;3.93;2.40;;;10.30;99.90;;;;;;5077800;28;20810;-75
2021/12/29 07:05:11;;;;;;;3.67;1.90;;;10.30;99.90;;;;;;5094828;28;20173;-75
2021/12/29 07:07:37;;;;;;;4.23;1.80;;;10.30;99.90;;;;;;5095892;28;20223;-76
2021/12/29 07:10:04;;;;;;;3.97;2.10;;;10.30;99.90;;;;;;5092449;28;20635;-78
2021/12/29 07:12:30;;;;;;;4.77;2.20;;;10.30;99.90;;;;;;5091667;28;20172;-77
2021/12/29 07:14:56;;;;;;;2.57;1.80;;;10.30;99.90;;;;;;5092370;28;20183;-78
2021/12/29 07:17:22;;;;;;;6.63;1.90;;;10.30;99.90;;;;;;5092513;28;20236;-75
2021/12/29 07:19:48;;;;;;;4.20;1.80;;;10.40;99.90;;;;;;5092941;28;20185;-74
2021/12/29 07:22:14;;;;;;;3.60;1.83;;;10.40;99.90;;;;;;5091960;28;20655;-73
2021/12/29 07:24:39;;;;;;;2.77;1.73;;;10.30;99.90;;;;;;5092299;28;20242;-74
2021/12/29 07:27:05;;;;;;;4.80;1.87;;;10.40;99.90;;;;;;5092006;28;20744;-75
2021/12/29 07:29:31;;;;;;;5.13;1.80;;;10.40;99.90;;;;;;5092339;28;20258;-75
2021/12/29 07:31:58;;;;;;;5.67;2.00;;;10.40;99.90;;;;;;5090784;28;20618;-75
2021/12/29 07:34:25;;;;;;;3.50;2.00;;;10.40;99.90;;;;;;5091818;28;20215;-77
2021/12/29 07:36:51;;;;;;;4.90;2.00;;;10.40;99.90;;;;;;5090964;28;20196;-80
2021/12/29 07:39:18;;;;;;;4.63;1.87;;;10.40;99.90;;;;;;5089876;28;20187;-78
2021/12/29 07:41:45;;;;;;;3.40;1.87;;;10.40;99.90;;;;;;5091117;28;20667;-78
2021/12/29 07:44:18;;;;;;;3.93;1.90;;;10.40;99.90;;;;;;5066523;28;20240;-78
2021/12/29 07:46:47;;;;;;;5.23;2.30;;;10.40;99.90;;;;;;5072686;28;20213;-79
2021/12/29 07:49:13;;;;;;;5.50;1.70;;;10.50;99.90;;;;;;5092098;28;20257;-78
2021/12/29 07:51:40;;;;;;;3.33;1.80;;;10.50;99.90;;;;;;5094613;28;20205;-78
2021/12/29 07:54:06;;;;;;;4.80;2.07;;;10.50;99.90;;;;;;5095047;28;20161;-77
2021/12/29 07:56:32;;;;;;;4.50;2.07;;;10.50;99.90;;;;;;5094317;28;20196;-78
2021/12/29 07:58:58;;;;;;;5.80;1.97;;;10.50;99.90;;;;;;5088644;28;20683;-77
2021/12/29 08:01:25;;;;;;;5.27;2.13;;;10.50;99.90;;;;;;5075351;28;20185;-78
2021/12/29 08:03:51;;;;;;;4.80;2.00;;;10.50;99.90;;;;;;5117603;27;20704;-78
2021/12/29 08:06:18;;;;;;;3.00;1.97;;;10.50;99.90;;;;;;5099275;28;20294;-79
2021/12/29 08:08:44;;;;;;;3.03;1.90;;;10.50;99.90;;;;;;5089140;28;20177;-78
2021/12/29 08:11:11;;;;;;;3.60;2.10;;;10.50;99.90;;;;;;5057102;28;20268;-77
2021/12/29 08:13:37;;;;;;;2.87;1.80;;;10.50;99.90;;;;;;5092088;28;20179;-78
2021/12/29 08:16:03;;;;;;;3.37;1.80;;;10.50;99.90;;;;;;5091264;28;20212;-78
2021/12/29 08:18:29;;;;;;;4.83;1.90;;;10.60;99.90;;;;;;5092405;28;20185;-78
2021/12/29 08:20:55;;;;;;;2.97;1.43;;;10.60;99.90;;;;;;5092222;28;20211;-78
2021/12/29 08:23:21;;;;;;;2.90;1.63;;;10.60;99.90;;;;;;5091627;28;20179;-78
2021/12/29 08:25:47;;;;;;;4.27;2.03;;;10.70;99.90;;;;;;5092629;28;20333;-78
2021/12/29 08:28:13;;;;;;;2.53;1.60;;;10.60;99.90;;;;;;5092479;28;20271;-78
2021/12/29 08:30:39;;;;;;;4.90;1.90;;;10.70;99.90;;;;;;5102516;28;20172;-78
2021/12/29 08:33:05;;;;;;;4.30;1.97;;;10.60;99.90;;;;;;5112251;28;20199;-78
2021/12/29 08:35:31;;;;;;;3.30;1.87;;;10.70;99.90;;;;;;5113452;28;20180;-78
2021/12/29 08:37:57;;;;;;;3.23;1.83;;;10.60;99.90;;;;;;5112560;28;20172;-78
2021/12/29 08:40:23;;;;;;;2.83;1.70;;;10.70;99.90;;;;;;5091186;28;20177;-78
2021/12/29 08:42:49;;;;;;;4.73;1.83;;;10.60;99.90;;;;;;5092041;28;20172;-78
2021/12/29 08:45:16;;;;;;;4.93;2.07;;;10.60;99.90;;;;;;5092354;28;20177;-78
2021/12/29 08:47:43;;;;;;;5.70;2.00;;;10.60;99.90;;;;;;5089564;28;20226;-78
2021/12/29 08:50:13;;;;;;;3.47;2.20;;;10.70;99.90;;;;;;5107844;28;20201;-80
2021/12/29 08:52:40;;;;;;;3.03;1.83;;;10.70;99.90;;;;;;5090014;28;20553;-78
2021/12/29 08:55:08;;;;;;;2.80;1.70;;;10.70;99.90;;;;;;5074590;28;20260;-78
2021/12/29 08:57:33;;;;;;;3.17;1.97;;;10.80;99.90;;;;;;5089040;28;20414;-78
2021/12/29 08:59:59;;;;;;;3.37;2.13;;;10.80;99.90;;;;;;5073304;28;20184;-78
2021/12/29 09:02:26;;;;;;;5.40;2.30;;;10.90;99.90;;;;;;5095069;28;20196;-78
2021/12/29 09:04:52;;;;;;;5.90;3.03;;;10.80;99.90;;;;;;5090345;28;20180;-78
2021/12/29 09:07:19;;;;;;;5.00;3.20;;;10.90;99.90;;;;;;5099203;28;20298;-79
2021/12/29 09:09:45;;;;;;;4.20;2.70;;;10.90;99.90;;;;;;5096142;28;20184;-78
2021/12/29 09:12:11;;;;;;;4.67;2.70;;;10.90;99.90;;;;;;5090471;28;20181;-78
2021/12/29 09:14:37;;;;;;;5.60;1.93;;;10.90;99.90;;;;;;5095309;28;20179;-78
2021/12/29 09:17:03;;;;;;;4.20;2.20;;;10.90;99.90;;;;;;5079417;28;20291;-78
2021/12/29 09:19:33;;;;;;;3.80;2.33;;;10.80;99.90;;;;;;5077975;28;20176;-78
2021/12/29 09:21:59;;;;;;;3.67;2.17;;;10.90;99.90;;;;;;5079778;28;20188;-78
2021/12/29 09:24:24;;;;;;;4.47;2.40;;;10.90;99.90;;;;;;5097770;28;20168;-77
2021/12/29 09:26:51;;;;;;;3.67;2.57;;;10.90;99.90;;;;;;5097171;28;20336;-78
2021/12/29 09:29:16;;;;;;;4.40;2.60;;;11.00;99.90;;;;;;5097148;28;20656;-78
2021/12/29 09:31:42;;;;;;;5.70;2.40;;;11.00;99.90;;;;;;5097602;28;20247;-78
2021/12/29 09:34:08;;;;;;;4.50;2.40;;;11.10;99.90;;;;;;5096755;28;20181;-78
2021/12/29 09:36:33;;;;;;;4.43;2.20;;;11.10;99.90;;;;;;5096382;28;20706;-78
2021/12/29 09:39:00;;;;;;;2.23;1.90;;;11.10;99.90;;;;;;5096419;28;20692;-78
2021/12/29 09:41:29;;;;;;;3.73;2.00;;;11.10;99.90;;;;;;5095117;28;20255;-78
2021/12/29 09:43:55;;;;;;;3.10;2.23;;;11.10;99.90;;;;;;5095421;28;20263;-78
2021/12/29 09:46:21;;;;;;;3.37;2.00;;;11.10;99.90;;;;;;5095070;28;20304;-78
2021/12/29 09:48:48;;;;;;;6.90;2.20;;;11.20;99.90;;;;;;5096202;28;20766;-78
2021/12/29 09:51:15;;;;;;;5.10;2.20;;;11.20;99.90;;;;;;5096037;28;20686;-79
2021/12/29 09:53:41;;;;;;;5.87;2.90;;;11.20;99.90;;;;;;5095791;28;20157;-78
2021/12/29 09:56:10;;;;;;;5.73;2.63;;;11.30;99.90;;;;;;5092338;28;20235;-80
2021/12/29 09:58:36;;;;;;;5.80;2.10;;;11.40;99.90;;;;;;5090608;28;20309;-78
2021/12/29 10:01:04;;;;;;;4.40;2.20;;;11.40;99.90;;;;;;5093808;28;20649;-78
2021/12/29 10:03:32;;;;;;;4.20;2.07;;;11.40;99.90;;;;;;5093992;28;20180;-78
2021/12/29 10:06:00;;;;;;;3.30;1.80;;;11.50;99.90;;;;;;5093946;28;20204;-78
2021/12/29 10:08:29;;;;;;;5.03;1.80;;;11.50;99.90;;;;;;5092472;28;20233;-78
2021/12/29 10:10:59;;;;;;;5.03;2.07;;;11.50;99.90;;;;;;5093548;28;20184;-78
2021/12/29 10:13:28;;;;;;;3.53;1.77;;;11.60;99.90;;;;;;5093663;28;20192;-78
2021/12/29 10:16:01;;;;;;;2.77;1.80;;;11.70;99.90;;;;;;5070620;28;20228;-78
2021/12/29 10:18:30;;;;;;;5.17;1.70;;;11.70;99.90;;;;;;5094167;28;20188;-78
2021/12/29 10:21:03;;;;;;;4.50;1.67;;;11.70;99.90;;;;;;5091491;28;20185;-78
2021/12/29 10:23:30;;;;;;;5.60;2.20;;;11.70;99.90;;;;;;5094019;28;20172;-78
2021/12/29 10:26:05;;;;;;;5.17;1.90;;;11.80;99.90;;;;;;5089758;28;20585;-78
2021/12/29 10:28:32;;;;;;;6.57;1.90;;;11.90;99.90;;;;;;5071150;28;20705;-78
2021/12/29 10:31:06;;;;;;;5.13;2.00;;;11.90;99.90;;;;;;5092669;28;20192;-78
2021/12/29 10:33:41;;;;;;;4.93;2.00;;;11.90;99.90;;;;;;5092404;28;20211;-78
2021/12/29 10:36:11;;;;;;;4.00;2.10;;;12.00;99.90;;;;;;5093194;28;20196;-78
2021/12/29 10:38:37;;;;;;;4.47;1.73;;;11.90;99.90;;;;;;5092989;28;20536;-79
2021/12/29 10:41:03;;;;;;;5.87;2.37;;;11.80;99.90;;;;;;5092440;28;20245;-78
2021/12/29 10:43:29;;;;;;;6.83;2.50;;;11.80;99.90;;;;;;5089075;28;20208;-79
2021/12/29 10:45:55;;;;;;;7.27;2.50;;;11.80;99.90;;;;;;5072361;28;20261;-78
2021/12/29 10:48:29;;;;;;;6.90;2.40;;;11.80;99.90;;;;;;5088846;28;20195;-78
2021/12/29 10:51:00;;;;;;;6.90;2.63;;;11.80;99.90;;;;;;5094030;28;20749;-79
2021/12/29 10:53:28;;;;;;;6.83;2.93;;;11.80;99.90;;;;;;5089974;28;20181;-78
2021/12/29 10:55:54;;;;;;;8.83;2.70;;;11.80;99.90;;;;;;5091146;28;20207;-78
2021/12/29 10:58:23;;;;;;;6.13;2.60;;;11.80;99.90;;;;;;5093018;28;20177;-79
2021/12/29 11:01:00;;;;;;;10.87;2.73;;;11.70;99.90;;;;;;5075306;28;20215;-78
2021/12/29 11:03:27;;;;;;;8.80;2.93;;;11.70;99.90;;;;;;5091129;28;20192;-78
2021/12/29 11:06:00;;;;;;;7.30;2.30;;;11.60;99.90;;;;;;5089611;28;20224;-78
2021/12/29 11:08:31;;;;;;;6.53;2.30;;;11.60;99.90;;;;;;5103377;28;20235;-77
2021/12/29 11:11:03;;;;;;;4.93;2.37;;;11.60;99.90;;;;;;5091653;28;20200;-81
2021/12/29 11:13:30;;;;;;;7.83;2.40;;;11.60;99.90;;;;;;5090416;28;20199;-82
2021/12/29 11:15:57;;;;;;;8.27;3.23;;;11.60;99.90;;;;;;5057852;28;20212;-81
2021/12/29 11:18:23;;;;;;;6.97;2.97;;;11.60;99.90;;;;;;5054543;28;20185;-81
2021/12/29 11:20:57;;;;;;;8.17;3.00;;;11.60;99.90;;;;;;5079460;28;20549;-79
2021/12/29 11:23:24;;;;;;;8.50;2.93;;;11.60;99.90;;;;;;5092778;28;20233;-80
2021/12/29 11:25:51;;;;;;;7.90;2.73;;;11.60;99.90;;;;;;5060590;28;20219;-82
2021/12/29 11:28:27;;;;;;;8.33;3.20;;;11.60;99.90;;;;;;5091099;28;20183;-82
2021/12/29 11:30:54;;;;;;;5.90;2.50;;;11.60;99.90;;;;;;5064458;28;20195;-83
2021/12/29 11:33:21;;;;;;;5.07;2.53;;;11.60;99.90;;;;;;5076705;28;20176;-78
2021/12/29 11:35:50;;;;;;;5.83;2.47;;;11.50;99.90;;;;;;5089794;28;20196;-79
2021/12/29 11:38:18;;;;;;;4.77;2.20;;;11.50;99.90;;;;;;5093716;28;20715;-82
2021/12/29 11:40:47;;;;;;;4.50;2.20;;;11.50;99.90;;;;;;5098516;28;20188;-80
2021/12/29 11:43:16;;;;;;;9.43;2.73;;;11.50;99.90;;;;;;5094454;28;20184;-79
2021/12/29 11:45:44;;;;;;;6.60;2.60;;;11.60;99.90;;;;;;5072311;28;20667;-79
2021/12/29 11:48:11;;;;;;;7.93;2.50;;;11.50;99.90;;;;;;5066594;28;20238;-78
2021/12/29 11:50:45;;;;;;;7.27;2.30;;;11.50;99.90;;;;;;5067430;28;20279;-76
2021/12/29 11:53:20;;;;;;;9.03;2.30;;;11.50;99.90;;;;;;5087407;28;20219;-77
2021/12/29 11:55:50;;;;;;;6.10;2.27;;;11.70;99.90;;;;;;5086891;28;20184;-78
2021/12/29 11:58:23;;;;;;;7.13;2.50;;;11.70;99.90;;;;;;5084637;28;20194;-76
2021/12/29 12:01:05;;;;;;;6.03;2.40;;;11.80;99.90;;;;;;5083858;28;20191;-74
2021/12/29 12:03:56;;;;;;;6.77;2.40;;;11.80;99.90;;;;;;5085997;28;20195;-75
2021/12/29 12:06:32;;;;;;;7.00;2.70;;;11.80;99.90;;;;;;5085294;28;20204;-75
2021/12/29 12:09:22;;;;;;;5.90;2.30;;;11.80;99.90;;;;;;5086059;28;20180;-75
2021/12/29 12:11:53;;;;;;;5.57;2.30;;;11.90;99.90;;;;;;5084306;28;20265;-75
2021/12/29 12:14:22;;;;;;;3.40;2.33;;;11.90;99.90;;;;;;5086475;28;20240;-76
2021/12/29 12:16:57;;;;;;;6.40;2.90;;;11.90;99.90;;;;;;5088597;28;20197;-76
2021/12/29 12:19:26;;;;;;;5.00;2.77;;;11.80;99.90;;;;;;5090606;28;20207;-76
2021/12/29 12:22:21;;;;;;;5.47;2.43;;;11.70;99.90;;;;;;5090168;28;20181;-76
2021/12/29 12:24:50;;;;;;;5.77;2.20;;;11.60;99.90;;;;;;5071508;28;20195;-76
2021/12/29 12:27:39;;;;;;;5.30;2.07;;;11.60;99.90;;;;;;5090459;28;20711;-76
2021/12/29 12:30:06;;;;;;;4.03;1.90;;;11.50;99.90;;;;;;5087730;28;20184;-75
2021/12/29 12:32:40;;;;;;;8.40;2.43;;;11.50;99.90;;;;;;5089673;28;20205;-76
2021/12/29 12:35:06;;;;;;;6.10;2.27;;;11.40;99.90;;;;;;5085984;28;20562;-76
2021/12/29 12:37:36;;;;;;;3.87;2.10;;;11.40;99.90;;;;;;5071801;28;20690;-76
2021/12/29 12:40:23;;;;;;;9.33;2.70;;;11.30;99.90;;;;;;5088972;28;20173;-75
2021/12/29 12:43:01;;;;;;;9.43;2.50;;;11.30;99.90;;;;;;5081081;28;20226;-75
2021/12/29 12:45:33;;;;;;;7.07;2.57;;;11.30;99.90;;;;;;5085355;28;20262;-75
2021/12/29 12:48:08;;;;;;;6.33;2.70;;;11.30;99.90;;;;;;5087838;28;20350;-73
2021/12/29 12:50:35;;;;;;;9.40;2.37;;;11.20;99.90;;;;;;5087822;28;20192;-77
2021/12/29 12:53:02;;;;;;;9.83;3.13;;;11.20;99.90;;;;;;5087996;28;20191;-75
2021/12/29 12:55:30;;;;;;;5.17;2.40;;;11.20;99.90;;;;;;5084540;28;20192;-76
2021/12/29 12:58:07;;;;;;;7.90;3.00;;;11.20;99.90;;;;;;5085967;28;20559;-76
2021/12/29 13:00:33;;;;;;;6.43;3.10;;;11.30;99.90;;;;;;5086819;28;20180;-76
2021/12/29 13:03:03;;;;;;;9.67;3.40;;;11.30;99.90;;;;;;5087989;28;20199;-77